East Providence, RI (02914)

9:37 PM EDT on September 28, 2016 (GMT -0400)
Richmond Square | | Change Station

Elev 18 ft 41.83 °N, 71.38 °W | Updated 2 minutes ago

Overcast
Overcast
58.0 °F
Feels Like 58.0 °F
N
3.0
Wind Variable Wind from NNW
Gusts 15.0 mph

Today
High -- | Low -- °F
--% Chance of Precip.
Yesterday
High -- | Low -- °F
Precip. -- in
Pressure 30.28 in
Visibility 6.0 miles
Clouds Overcast 800 ft
Dew Point 56 °F
Humidity 92%
Rainfall 0.00 in
Snow Depth Not available.
6:39 AM 6:31 PM
Waning Crescent, 4% visible
METAR KPVD 290051Z 03011KT 6SM BR OVC008 14/12 A3028 RMK AO2 SLP254 T01390122
Pressure 30.28 in
Visibility 6.0 miles
Clouds Overcast 800 ft
Dew Point 56 °F
Humidity 92%
Rainfall 0.00 in
Snow Depth Not available.
6:39 AM 6:31 PM
Waning Crescent, 4% visible
METAR KPVD 290051Z 03011KT 6SM BR OVC008 14/12 A3028 RMK AO2 SLP254 T01390122

10-Day Weather Forecast

Almanac

Astronomy

Sep. 28, 2016 Rise Set
Actual Time
Civil Twilight
Nautical Twilight
Astronomical Twilight
Moon
Length of Visible Light
Length of Day
Tomorrow will be .
, % of the Moon is Illuminated

Today's Extremes

State Highs State Lows

Community

WunderPhotos

Upload Photos

1,942,390 photos uploaded!

WunderBlog® & News

Nearby

Air Quality

  Air Quality AQ Index Pollutant
Not available.

Snow Depth

Station Depth Elevation

Earthquake Activity

City Distance Mag. Time & Date
Minimum magnitude displayed is 2.5.

Coastal Water Temperatures

Place Temperature

Stations

Nearby Weather Stations

Station Location Temp. Windchill Dew Point Humidity Wind Precip. Elev Updated Type
                   

Watches & Warnings

There are currently no watches in effect.